Time;durP1;ratioP1;P1;durP2;ratioP2;P2;SDS_P1;SDS_P2;PMS_P1;PMS_P2;Temp;Humidity;BMP_temperature;BMP_pressure;BME280_temperature;BME280_humidity;BME280_pressure;Samples;Min_cycle;Max_cycle;Signal;HPM_P1;HPM_P2
2024/02/05 00:01:47;;;;;;;10.55;4.12;;;;;;;5.13;94.08;98920.27;1713327;83;28125;-45
2024/02/05 00:04:12;;;;;;;12.90;3.80;;;;;;;5.15;94.02;98908.67;1697949;81;25625;-46
2024/02/05 00:06:39;;;;;;;14.25;3.65;;;;;;;5.17;93.92;98921.78;1700657;83;25657;-44
2024/02/05 00:09:07;;;;;;;8.25;3.40;;;;;;;5.16;94.34;98902.23;1711171;82;26608;-45
2024/02/05 00:11:36;;;;;;;8.95;3.67;;;;;;;5.19;94.38;98908.85;1698608;82;25505;-48
2024/02/05 00:14:05;;;;;;;10.72;3.55;;;;;;;5.19;94.60;98904.83;1710451;83;28128;-43
2024/02/05 00:16:31;;;;;;;11.08;3.90;;;;;;;5.19;94.30;98899.47;1700789;83;25541;-43
2024/02/05 00:19:00;;;;;;;8.43;3.58;;;;;;;5.19;94.38;98898.13;1694672;82;25480;-45
2024/02/05 00:21:26;;;;;;;6.92;3.37;;;;;;;5.19;94.45;98904.30;1684064;83;25631;-43
2024/02/05 00:23:55;;;;;;;9.55;3.65;;;;;;;5.19;94.40;98900.28;1688059;82;25823;-45
2024/02/05 00:26:22;;;;;;;7.80;3.60;;;;;;;5.20;94.43;98897.05;1690232;83;28160;-48
2024/02/05 00:28:50;;;;;;;7.95;3.15;;;;;;;5.21;94.50;98894.59;1706020;83;25872;-48
2024/02/05 00:31:19;;;;;;;7.67;3.92;;;;;;;5.20;94.78;98876.38;1700070;83;25457;-48
2024/02/05 00:33:49;;;;;;;9.50;3.95;;;;;;;5.22;94.46;98898.30;1704014;83;26641;-45
2024/02/05 00:36:15;;;;;;;9.35;3.77;;;;;;;5.22;94.65;98884.90;1695490;82;25900;-45
2024/02/05 00:38:44;;;;;;;11.60;4.15;;;;;;;5.23;94.61;98883.81;1710802;83;28459;-48
2024/02/05 00:41:11;;;;;;;12.33;4.37;;;;;;;5.24;94.56;98881.91;1684082;84;25735;-43
2024/02/05 00:43:40;;;;;;;9.78;4.45;;;;;;;5.24;94.98;98882.73;1644633;86;25845;-43
2024/02/05 00:46:09;;;;;;;;;;;;;;;5.26;95.03;98888.31;1709733;83;26164;-44
2024/02/05 00:48:38;;;;;;;16.70;4.85;;;;;;;5.26;95.18;98885.63;1705667;83;25590;-44
2024/02/05 00:51:05;;;;;;;8.70;4.15;;;;;;;5.23;95.76;98883.03;1702231;83;27242;-44
2024/02/05 00:53:32;;;;;;;6.50;3.90;;;;;;;5.22;95.72;98880.87;1712521;83;25497;-45
2024/02/05 00:56:01;;;;;;;8.65;4.03;;;;;;;5.22;95.50;98871.49;1696171;83;33399;-44
2024/02/05 00:58:28;;;;;;;8.43;4.08;;;;;;;5.21;95.52;98871.27;1709978;83;26210;-45
2024/02/05 01:00:57;;;;;;;8.75;4.20;;;;;;;5.21;95.38;98879.31;1693495;81;25409;-46
2024/02/05 01:03:24;;;;;;;9.68;3.90;;;;;;;5.23;95.89;98874.98;1687432;82;28026;-43
2024/02/05 01:05:51;;;;;;;10.85;4.97;;;;;;;5.24;96.33;98851.08;1668530;84;25568;-44
2024/02/05 01:08:18;;;;;;;8.65;4.30;;;;;;;5.23;95.94;98874.98;1667992;83;25824;-44
2024/02/05 01:10:49;;;;;;;15.10;4.90;;;;;;;5.22;96.49;98863.45;1711045;81;25982;-45
2024/02/05 01:13:17;;;;;;;8.53;4.42;;;;;;;5.22;97.60;98848.70;1693444;82;25566;-44
2024/02/05 01:15:44;;;;;;;8.60;4.40;;;;;;;5.21;96.90;98861.08;1689552;83;28065;-47
2024/02/05 01:18:13;;;;;;;9.50;4.65;;;;;;;5.19;96.86;98892.24;1682158;84;25677;-44
2024/02/05 01:20:43;;;;;;;7.97;4.40;;;;;;;5.19;97.12;98871.32;1650393;86;25732;-44
2024/02/05 01:23:13;;;;;;;7.08;3.95;;;;;;;5.18;97.07;98865.18;1649865;86;25669;-48
2024/02/05 01:25:43;;;;;;;8.30;4.55;;;;;;;5.18;97.56;98849.09;1649731;86;25648;-44
2024/02/05 01:28:12;;;;;;;8.93;4.15;;;;;;;5.18;97.40;98869.20;1695270;82;27329;-45
2024/02/05 01:30:39;;;;;;;11.08;4.05;;;;;;;5.20;97.33;98854.15;1685081;83;25725;-45
2024/02/05 01:33:06;;;;;;;8.90;4.65;;;;;;;5.20;97.27;98862.19;1686487;83;25604;-46
2024/02/05 01:35:33;;;;;;;6.53;4.03;;;;;;;5.21;97.21;98836.95;1707877;82;26637;-48
2024/02/05 01:37:59;;;;;;;7.55;3.60;;;;;;;5.21;97.18;98852.50;1693994;83;25753;-47
2024/02/05 01:40:29;;;;;;;7.37;3.65;;;;;;;5.23;97.07;98839.58;1690201;82;28355;-44
2024/02/05 01:42:55;;;;;;;10.60;4.20;;;;;;;5.24;96.98;98839.83;1685416;83;25991;-43
2024/02/05 01:45:25;;;;;;;8.75;3.90;;;;;;;5.27;96.78;98828.24;1690212;82;25835;-45
2024/02/05 01:47:51;;;;;;;8.73;3.70;;;;;;;5.28;96.48;98831.14;1666521;84;26266;-44
2024/02/05 01:50:21;;;;;;;8.73;3.85;;;;;;;5.30;96.28;98832.44;1669756;83;25919;-44
2024/02/05 01:52:53;;;;;;;9.95;3.95;;;;;;;5.33;96.10;98821.09;1632696;85;28075;-45
2024/02/05 01:55:28;;;;;;;6.53;3.65;;;;;;;5.35;95.86;98818.89;1690974;83;25487;-44
2024/02/05 01:57:57;;;;;;;5.58;3.52;;;;;;;5.39;95.72;98802.97;1686977;83;25573;-45
2024/02/05 02:00:28;;;;;;;9.88;4.20;;;;;;;5.42;95.43;98833.19;1701519;81;26359;-44
2024/02/05 02:02:57;;;;;;;6.85;3.92;;;;;;;5.43;95.37;98811.43;1688195;83;25639;-44
2024/02/05 02:05:26;;;;;;;7.10;3.80;;;;;;;5.44;95.23;98792.10;1709260;82;27332;-46
2024/02/05 02:07:55;;;;;;;13.38;3.90;;;;;;;5.48;94.87;98804.33;1672185;84;26045;-45
2024/02/05 02:10:22;;;;;;;8.97;3.63;;;;;;;5.48;94.79;98807.80;1690271;83;25647;-45
2024/02/05 02:12:54;;;;;;;8.83;3.70;;;;;;;5.49;94.61;98791.95;1687937;83;27817;-44
2024/02/05 02:15:21;;;;;;;6.87;3.62;;;;;;;5.51;94.44;98795.11;1636229;86;25830;-48
2024/02/05 02:17:54;;;;;;;5.00;3.25;;;;;;;5.52;94.30;98787.31;1641168;86;27761;-48
2024/02/05 02:20:26;;;;;;;5.25;3.30;;;;;;;5.54;94.20;98795.83;1634005;86;26052;-44
2024/02/05 02:23:01;;;;;;;10.13;3.33;;;;;;;5.56;94.04;98807.03;1687217;83;25672;-46
2024/02/05 02:25:31;;;;;;;8.90;4.25;;;;;;;5.56;94.01;98790.94;1696694;83;25618;-48
2024/02/05 02:28:00;;;;;;;8.33;3.60;;;;;;;5.57;93.79;98777.78;1705853;83;25606;-45
2024/02/05 02:30:30;;;;;;;5.35;3.72;;;;;;;5.59;93.71;98778.81;1694324;83;28266;-45
2024/02/05 02:33:23;;;;;;;6.05;3.15;;;;;;;5.57;93.64;98799.23;1700406;83;25814;-45
2024/02/05 02:36:04;;;;;;;7.20;3.55;;;;;;;5.60;93.43;98780.38;1629001;86;25518;-45
2024/02/05 02:39:11;;;;;;;5.40;3.10;;;;;;;5.59;93.28;98763.50;1628565;86;25991;-44
2024/02/05 02:41:43;;;;;;;6.75;3.00;;;;;;;5.60;92.99;98775.83;1614013;87;25540;-45
2024/02/05 02:44:16;;;;;;;7.08;3.00;;;;;;;5.61;93.02;98763.97;1643722;85;28058;-46
2024/02/05 02:46:43;;;;;;;4.50;2.85;;;;;;;5.62;93.00;98762.10;1653567;84;25719;-41
2024/02/05 02:49:13;;;;;;;8.48;3.02;;;;;;;5.63;93.17;98754.84;1656995;85;25913;-47
2024/02/05 02:51:40;;;;;;;3.33;3.00;;;;;;;5.62;93.19;98755.39;1614461;88;26248;-45
2024/02/05 02:54:14;;;;;;;4.90;2.58;;;;;;;5.61;93.27;98747.88;1637823;87;25572;-43
2024/02/05 02:56:41;;;;;;;7.35;2.70;;;;;;;5.60;93.62;98737.46;1654429;84;28011;-44
2024/02/05 02:59:11;;;;;;;5.65;2.83;;;;;;;5.56;93.76;98726.57;1633556;86;25677;-44
2024/02/05 03:01:43;;;;;;;5.30;2.67;;;;;;;5.53;93.72;98737.92;1626859;86;25655;-47
2024/02/05 03:04:10;;;;;;;4.72;2.83;;;;;;;5.53;93.83;98725.84;1614630;87;25976;-46
2024/02/05 03:06:36;;;;;;;5.40;2.62;;;;;;;5.51;93.86;98738.01;1629551;86;25570;-44
2024/02/05 03:09:08;;;;;;;4.17;2.80;;;;;;;5.51;93.98;98728.63;1606837;87;26981;-44
2024/02/05 03:11:34;;;;;;;4.90;2.92;;;;;;;5.50;94.20;98721.67;1648083;83;25785;-47
2024/02/05 03:14:01;;;;;;;4.50;2.90;;;;;;;5.48;94.24;98742.09;1691983;83;25430;-44
2024/02/05 03:16:31;;;;;;;4.20;2.75;;;;;;;5.49;94.14;98716.09;1687163;83;26773;-45
2024/02/05 03:19:01;;;;;;;3.67;3.08;;;;;;;5.49;94.21;98733.52;1703341;83;25426;-44
2024/02/05 03:21:31;;;;;;;3.30;2.60;;;;;;;5.49;94.29;98721.45;1692523;83;27663;-43
2024/02/05 03:24:03;;;;;;;5.45;3.15;;;;;;;5.50;94.45;98717.64;1690903;83;25410;-44
2024/02/05 03:26:33;;;;;;;8.98;2.65;;;;;;;5.51;94.36;98728.06;1702230;83;25656;-45
2024/02/05 03:29:01;;;;;;;4.47;2.50;;;;;;;5.52;94.46;98714.91;1697660;83;25709;-44
2024/02/05 03:31:32;;;;;;;3.45;2.47;;;;;;;5.53;94.31;98729.09;1700348;83;25595;-43
2024/02/05 03:34:00;;;;;;;4.20;2.35;;;;;;;5.54;94.30;98741.41;1695351;83;28531;-43
2024/02/05 03:36:28;;;;;;;2.40;2.20;;;;;;;5.54;94.33;98728.78;1693584;83;25573;-43
2024/02/05 03:38:59;;;;;;;2.20;1.92;;;;;;;5.53;94.19;98722.39;1695106;83;25402;-44
2024/02/05 03:41:27;;;;;;;;;;;;;;;5.55;94.19;98739.77;1701063;83;26230;-44
2024/02/05 03:43:56;;;;;;;3.72;2.37;;;;;;;5.55;94.10;98747.81;1709699;83;25625;-43
2024/02/05 03:46:22;;;;;;;5.15;2.42;;;;;;;5.53;94.21;98719.14;1700017;83;28004;-45
2024/02/05 03:48:54;;;;;;;2.67;2.47;;;;;;;5.54;94.46;98732.80;1695685;83;25608;-45
2024/02/05 03:51:25;;;;;;;3.77;2.60;;;;;;;5.54;94.42;98728.78;1701197;83;25611;-42
2024/02/05 03:53:55;;;;;;;4.87;2.40;;;;;;;5.53;94.62;98737.92;1692874;83;25896;-44
2024/02/05 03:56:26;;;;;;;2.77;2.25;;;;;;;5.54;94.78;98732.80;1700171;83;25846;-44
2024/02/05 03:58:52;;;;;;;3.55;2.60;;;;;;;5.54;94.71;98734.14;1695936;83;27558;-42
2024/02/05 04:01:23;;;;;;;2.75;2.55;;;;;;;5.55;94.89;98731.72;1696117;83;25780;-43
2024/02/05 04:03:50;;;;;;;3.47;2.85;;;;;;;5.55;95.12;98724.20;1690883;84;25818;-48
2024/02/05 04:06:19;;;;;;;6.08;3.10;;;;;;;5.54;95.31;98716.72;1689566;83;25965;-46
2024/02/05 04:08:48;;;;;;;4.25;2.72;;;;;;;5.55;95.68;98725.54;1689560;83;25415;-44
2024/02/05 04:11:18;;;;;;;3.47;2.70;;;;;;;5.55;95.68;98714.81;1693579;83;27324;-44
2024/02/05 04:13:48;;;;;;;3.30;3.00;;;;;;;5.54;95.54;98715.38;1699334;83;25626;-43
2024/02/05 04:16:17;;;;;;;5.75;2.80;;;;;;;5.54;95.57;98699.84;1704312;83;26000;-44
2024/02/05 04:18:47;;;;;;;2.75;2.55;;;;;;;5.54;95.96;98704.64;1705893;83;25718;-45
2024/02/05 04:21:14;;;;;;;4.12;3.08;;;;;;;5.53;96.26;98696.91;1689455;83;25617;-44
2024/02/05 04:23:40;;;;;;;2.70;2.50;;;;;;;5.53;96.17;98704.95;1701899;83;27312;-44
2024/02/05 04:26:17;;;;;;;3.83;2.42;;;;;;;5.52;96.31;98693.45;1701102;83;25745;-45
2024/02/05 04:28:48;;;;;;;4.62;2.60;;;;;;;5.51;96.33;98709.84;1701792;83;25596;-45
2024/02/05 04:31:18;;;;;;;3.70;2.95;;;;;;;5.48;96.92;98696.50;1682977;84;25674;-44
2024/02/05 04:33:49;;;;;;;3.02;2.65;;;;;;;5.48;97.15;98702.42;1691124;83;25582;-43
2024/02/05 04:36:16;;;;;;;2.83;2.60;;;;;;;5.48;96.90;98702.42;1692199;83;27378;-45
2024/02/05 04:38:45;;;;;;;3.40;2.98;;;;;;;5.48;96.90;98697.84;1701405;83;26082;-45
2024/02/05 04:41:12;;;;;;;3.30;2.98;;;;;;;5.47;97.13;98709.69;1691666;83;25476;-43
2024/02/05 04:43:41;;;;;;;5.70;3.17;;;;;;;5.47;97.46;98708.34;1679519;85;25594;-43
2024/02/05 04:46:11;;;;;;;3.95;3.40;;;;;;;5.46;98.07;98689.89;1685115;83;25389;-44
2024/02/05 04:48:38;;;;;;;3.77;3.47;;;;;;;5.46;97.66;98701.39;1692106;83;28001;-45
2024/02/05 04:51:12;;;;;;;4.20;3.40;;;;;;;5.46;97.85;98697.37;1703533;83;25549;-44
2024/02/05 04:53:40;;;;;;;5.15;3.60;;;;;;;5.46;98.35;98702.73;1694613;83;25577;-44
2024/02/05 04:56:07;;;;;;;5.03;3.92;;;;;;;5.46;97.79;98686.64;1685480;83;26063;-45
2024/02/05 04:58:34;;;;;;;4.65;3.37;;;;;;;5.47;98.02;98694.16;1702037;83;25741;-45
2024/02/05 05:01:03;;;;;;;5.78;3.62;;;;;;;5.46;98.29;98680.50;1689469;83;28511;-44
2024/02/05 05:03:33;;;;;;;4.50;3.10;;;;;;;5.48;97.99;98691.14;1692732;83;27007;-43
2024/02/05 05:06:04;;;;;;;4.15;3.33;;;;;;;5.47;98.02;98677.51;1705407;83;25870;-44
2024/02/05 05:08:30;;;;;;;3.12;2.83;;;;;;;5.47;97.98;98681.53;1692836;83;25964;-43
2024/02/05 05:10:57;;;;;;;3.62;3.05;;;;;;;5.48;98.13;98681.75;1691769;83;25488;-42
2024/02/05 05:13:26;;;;;;;4.00;3.00;;;;;;;5.46;98.29;98671.89;1698690;83;28382;-43
2024/02/05 05:15:56;;;;;;;4.62;2.75;;;;;;;5.46;98.21;98681.28;1687767;83;25672;-45
2024/02/05 05:18:24;;;;;;;3.08;2.62;;;;;;;5.47;98.69;98684.77;1698567;83;25560;-44
2024/02/05 05:20:51;;;;;;;3.50;3.10;;;;;;;5.46;98.68;98685.86;1684836;84;25968;-45
2024/02/05 05:23:17;;;;;;;5.30;2.80;;;;;;;5.46;98.50;98685.30;1693088;83;25888;-43
2024/02/05 05:25:44;;;;;;;4.45;3.08;;;;;;;5.45;98.70;98676.23;1683354;84;27692;-44
2024/02/05 05:28:13;;;;;;;5.00;3.00;;;;;;;5.45;98.51;98690.98;1696040;83;25639;-43
2024/02/05 05:30:40;;;;;;;2.40;2.20;;;;;;;5.45;98.64;98697.68;1695645;83;25829;-42
2024/02/05 05:33:06;;;;;;;3.37;2.80;;;;;;;5.43;98.86;98676.02;1701148;83;25628;-46
2024/02/05 05:35:38;;;;;;;3.47;2.90;;;;;;;5.43;98.51;98669.83;1707103;83;25623;-43
2024/02/05 05:38:05;;;;;;;5.67;3.12;;;;;;;5.43;98.65;98667.16;1693585;83;27224;-43
2024/02/05 05:40:33;;;;;;;4.25;2.62;;;;;;;5.43;98.72;98667.16;1694010;83;25989;-43
2024/02/05 05:43:04;;;;;;;3.30;2.62;;;;;;;5.43;98.70;98676.54;1700430;83;25585;-44
2024/02/05 05:45:31;;;;;;;4.65;2.60;;;;;;;5.44;98.59;98667.41;1703414;83;25981;-44
2024/02/05 05:47:57;;;;;;;2.65;2.27;;;;;;;5.42;98.45;98666.38;1685065;83;25472;-44
2024/02/05 05:50:24;;;;;;;3.10;2.60;;;;;;;5.47;98.32;98674.05;1689159;83;27986;-45
2024/02/05 05:52:50;;;;;;;2.40;2.20;;;;;;;5.49;98.29;98673.17;1687016;83;25785;-44
2024/02/05 05:55:17;;;;;;;3.30;2.30;;;;;;;5.49;98.13;98663.23;1693871;84;25739;-44
2024/02/05 05:57:45;;;;;;;3.27;2.10;;;;;;;5.51;97.97;98671.74;1687992;83;25844;-44
2024/02/05 06:00:13;;;;;;;2.70;2.42;;;;;;;5.53;97.88;98682.16;1705137;83;25648;-44
2024/02/05 06:02:40;;;;;;;2.08;1.98;;;;;;;5.55;97.81;98679.41;1696632;83;27315;-44
2024/02/05 06:05:09;;;;;;;3.45;2.17;;;;;;;5.57;97.60;98688.48;1693559;83;25804;-43
2024/02/05 06:07:36;;;;;;;2.65;2.08;;;;;;;5.58;97.46;98686.02;1690593;82;26006;-45
2024/02/05 06:10:03;;;;;;;2.30;2.00;;;;;;;5.60;97.40;98693.20;1686212;83;25959;-45
2024/02/05 06:12:29;;;;;;;2.30;2.10;;;;;;;5.61;97.15;98683.50;1681021;85;25802;-45
2024/02/05 06:14:56;;;;;;;2.27;2.08;;;;;;;5.64;96.99;98685.34;1686211;84;27307;-43
2024/02/05 06:17:23;;;;;;;2.52;2.27;;;;;;;5.65;96.87;98676.95;1680084;83;25539;-44
2024/02/05 06:19:49;;;;;;;2.45;2.20;;;;;;;5.67;96.81;98680.13;1681300;85;25639;-44
2024/02/05 06:22:16;;;;;;;2.15;1.95;;;;;;;5.70;96.76;98692.11;1684440;84;25611;-45
2024/02/05 06:24:42;;;;;;;2.02;1.82;;;;;;;5.71;96.79;98699.06;1696421;84;25446;-44
2024/02/05 06:27:10;;;;;;;2.25;2.02;;;;;;;5.72;96.76;98691.23;1685581;83;27201;-43
2024/02/05 06:29:37;;;;;;;2.27;1.98;;;;;;;5.72;96.67;98689.36;1692656;83;25613;-44
2024/02/05 06:32:06;;;;;;;2.42;2.10;;;;;;;5.73;96.94;98687.46;1695000;84;25627;-44
2024/02/05 06:34:33;;;;;;;4.83;2.40;;;;;;;5.74;96.89;98694.41;1693275;83;25597;-44
2024/02/05 06:37:00;;;;;;;2.58;2.35;;;;;;;5.74;97.14;98688.48;1692605;84;25798;-45
2024/02/05 06:39:27;;;;;;;2.83;2.62;;;;;;;5.74;97.43;98697.87;1690442;84;27979;-43
2024/02/05 06:41:53;;;;;;;2.85;2.33;;;;;;;5.74;97.51;98688.48;1688268;83;25744;-44
2024/02/05 06:44:20;;;;;;;3.12;2.60;;;;;;;5.72;98.03;98696.59;1680825;85;25555;-43
2024/02/05 06:46:47;;;;;;;2.85;2.47;;;;;;;5.69;98.05;98699.38;1685490;83;25576;-43
2024/02/05 06:49:14;;;;;;;3.30;2.47;;;;;;;5.67;98.53;98702.12;1686572;83;25620;-44
2024/02/05 06:51:41;;;;;;;3.67;2.27;;;;;;;5.65;98.64;98697.07;1681408;85;27670;-44
2024/02/05 06:54:08;;;;;;;2.60;2.40;;;;;;;5.65;98.44;98698.97;1689947;83;26275;-44
2024/02/05 06:56:35;;;;;;;2.33;2.12;;;;;;;5.63;98.65;98709.23;1703141;83;25457;-43
2024/02/05 06:59:01;;;;;;;2.42;2.00;;;;;;;5.65;98.52;98724.45;1690092;83;26347;-44
2024/02/05 07:01:28;;;;;;;3.92;1.60;;;;;;;5.66;98.57;98721.46;1693564;84;25833;-44
2024/02/05 07:03:55;;;;;;;3.05;1.92;;;;;;;5.67;98.51;98724.39;1693514;83;27636;-44
2024/02/05 07:06:21;;;;;;;2.25;1.80;;;;;;;5.69;98.79;98729.45;1698076;83;25802;-43
2024/02/05 07:08:48;;;;;;;1.77;1.67;;;;;;;5.68;98.71;98738.59;1691048;83;25747;-45
2024/02/05 07:11:15;;;;;;;2.60;1.77;;;;;;;5.68;98.77;98725.95;1702671;83;25597;-44
2024/02/05 07:13:41;;;;;;;3.67;1.87;;;;;;;5.69;98.88;98724.08;1691901;83;25511;-45
2024/02/05 07:16:14;;;;;;;3.17;2.05;;;;;;;5.70;99.30;98732.35;1695216;83;27377;-43
2024/02/05 07:18:42;;;;;;;2.95;1.85;;;;;;;5.68;99.17;98747.98;1700967;83;25495;-44
2024/02/05 07:21:09;;;;;;;2.30;2.10;;;;;;;5.67;99.42;98730.29;1693990;83;25454;-46
2024/02/05 07:23:36;;;;;;;2.20;1.87;;;;;;;5.67;99.78;98725.73;1686970;83;25923;-44
2024/02/05 07:26:03;;;;;;;2.40;2.05;;;;;;;5.67;99.90;98741.83;1700910;83;25903;-44
2024/02/05 07:28:30;;;;;;;2.75;2.10;;;;;;;5.67;100.00;98732.44;1686469;83;27477;-43
2024/02/05 07:30:57;;;;;;;3.15;2.12;;;;;;;5.67;100.00;98735.66;1687142;84;25541;-45
2024/02/05 07:33:24;;;;;;;4.28;2.00;;;;;;;5.66;100.00;98733.53;1687701;83;25856;-44
2024/02/05 07:35:50;;;;;;;3.30;2.50;;;;;;;5.67;100.00;98737.80;1691020;83;25890;-45
2024/02/05 07:38:18;;;;;;;3.98;2.65;;;;;;;5.68;100.00;98749.31;1689617;83;25402;-44
2024/02/05 07:40:46;;;;;;;5.97;2.67;;;;;;;5.68;99.97;98747.42;1688600;83;28418;-45
2024/02/05 07:43:13;;;;;;;4.28;3.27;;;;;;;5.71;99.81;98750.82;1687565;83;25399;-44
2024/02/05 07:45:40;;;;;;;7.12;3.55;;;;;;;5.73;99.76;98755.88;1691047;83;25644;-43
2024/02/05 07:48:09;;;;;;;6.87;3.60;;;;;;;5.75;99.51;98737.56;1702287;83;26006;-43
2024/02/05 07:50:36;;;;;;;;;;;;;;;5.78;99.36;98761.09;1698415;83;25503;-43
2024/02/05 07:53:05;;;;;;;5.72;2.70;;;;;;;5.84;98.53;98761.19;1710043;83;27441;-47
2024/02/05 07:55:32;;;;;;;3.02;2.65;;;;;;;5.90;98.72;98768.52;1700013;83;25786;-45
2024/02/05 07:57:59;;;;;;;3.22;2.80;;;;;;;5.96;97.41;98772.11;1699002;83;25806;-45
2024/02/05 08:00:25;;;;;;;2.67;2.00;;;;;;;6.04;97.48;98773.77;1698494;83;26462;-44
2024/02/05 08:02:52;;;;;;;2.22;1.75;;;;;;;6.10;97.14;98788.62;1701262;83;25452;-49
2024/02/05 08:05:20;;;;;;;3.47;2.08;;;;;;;6.16;96.33;98791.36;1697151;83;27649;-46
2024/02/05 08:07:47;;;;;;;1.98;1.77;;;;;;;6.20;95.34;98780.78;1690548;83;25226;-43
2024/02/05 08:10:14;;;;;;;2.42;1.72;;;;;;;6.24;95.08;98787.89;1686665;83;25666;-45
2024/02/05 08:12:41;;;;;;;2.98;1.92;;;;;;;6.28;95.06;98788.86;1696369;83;25777;-44
2024/02/05 08:15:09;;;;;;;1.98;1.77;;;;;;;6.32;94.65;98791.13;1693084;83;25424;-44
2024/02/05 08:17:36;;;;;;;1.72;1.60;;;;;;;6.33;93.83;98796.75;1690432;83;27332;-45
2024/02/05 08:20:04;;;;;;;1.98;1.40;;;;;;;6.39;93.34;98784.50;1695260;83;25612;-45
2024/02/05 08:22:31;;;;;;;2.00;1.55;;;;;;;6.46;93.55;98802.27;1689243;83;25426;-44
2024/02/05 08:24:58;;;;;;;4.22;1.60;;;;;;;6.48;93.30;98795.45;1697258;83;26200;-45
2024/02/05 08:27:24;;;;;;;1.50;1.40;;;;;;;6.52;93.12;98798.29;1703293;83;25477;-44
2024/02/05 08:29:52;;;;;;;2.50;1.87;;;;;;;6.55;92.96;98800.34;1705305;83;27219;-44
2024/02/05 08:32:19;;;;;;;2.00;1.80;;;;;;;6.56;92.27;98800.59;1693436;83;25719;-49
2024/02/05 08:34:46;;;;;;;2.05;1.50;;;;;;;6.63;92.09;98816.23;1688540;83;25458;-44
2024/02/05 08:37:13;;;;;;;1.92;1.72;;;;;;;6.68;91.79;98808.00;1696918;83;26569;-44
2024/02/05 08:39:40;;;;;;;2.27;1.90;;;;;;;6.72;91.08;98807.59;1694209;83;25420;-45
2024/02/05 08:42:07;;;;;;;3.02;1.60;;;;;;;6.77;91.37;98806.64;1687480;83;27680;-43
2024/02/05 08:44:34;;;;;;;3.65;1.87;;;;;;;6.84;91.28;98823.84;1693541;83;25611;-45
2024/02/05 08:47:01;;;;;;;2.80;1.45;;;;;;;6.90;90.81;98807.01;1692244;83;25690;-46
2024/02/05 08:49:28;;;;;;;1.80;1.62;;;;;;;6.97;90.63;98803.27;1695578;83;26387;-45
2024/02/05 08:51:56;;;;;;;2.65;1.50;;;;;;;7.01;89.37;98818.20;1690756;83;25459;-43
2024/02/05 08:54:23;;;;;;;2.47;1.50;;;;;;;7.06;89.65;98822.06;1662479;83;27920;-45
2024/02/05 08:56:50;;;;;;;2.35;1.45;;;;;;;7.08;89.12;98830.59;1667018;85;25705;-42
2024/02/05 08:59:17;;;;;;;4.78;1.37;;;;;;;7.10;88.44;98832.42;1678044;84;25802;-43
2024/02/05 09:01:45;;;;;;;1.80;1.50;;;;;;;7.10;88.37;98845.30;1686071;84;25679;-45
2024/02/05 09:04:14;;;;;;;2.27;1.30;;;;;;;7.15;87.95;98848.38;1688089;84;25454;-43
2024/02/05 09:06:41;;;;;;;2.15;1.35;;;;;;;7.20;87.70;98843.36;1683425;84;27859;-48
2024/02/05 09:09:09;;;;;;;3.98;1.25;;;;;;;7.27;87.74;98851.19;1686101;83;25726;-44
2024/02/05 09:11:36;;;;;;;1.97;1.20;;;;;;;7.35;86.80;98854.94;1700582;83;25500;-45
2024/02/05 09:14:02;;;;;;;2.87;1.30;;;;;;;7.42;85.82;98840.45;1690547;81;26024;-48
2024/02/05 09:16:29;;;;;;;1.50;0.90;;;;;;;7.50;85.81;98860.91;1715207;83;25655;-43
2024/02/05 09:18:55;;;;;;;2.77;1.30;;;;;;;7.56;85.97;98866.33;1702684;83;27672;-43
2024/02/05 09:21:22;;;;;;;2.12;0.93;;;;;;;7.60;85.24;98856.52;1701757;83;25475;-43
2024/02/05 09:23:48;;;;;;;3.02;1.35;;;;;;;7.64;84.31;98860.93;1690004;83;25433;-43
2024/02/05 09:26:15;;;;;;;2.00;1.20;;;;;;;7.70;84.07;98868.83;1713991;82;26122;-44
2024/02/05 09:28:44;;;;;;;1.17;0.93;;;;;;;7.73;83.84;98871.66;1683657;82;25801;-43
2024/02/05 09:31:11;;;;;;;2.55;1.15;;;;;;;7.74;82.90;98875.91;1678066;83;28795;-44
2024/02/05 09:33:38;;;;;;;2.12;0.78;;;;;;;7.78;82.98;98883.58;1678504;84;26715;-44
2024/02/05 09:36:06;;;;;;;2.12;1.00;;;;;;;7.79;82.10;98870.91;1664088;84;25587;-44
2024/02/05 09:38:33;;;;;;;4.25;1.37;;;;;;;7.80;81.54;98868.45;1642026;84;25814;-43
2024/02/05 09:41:05;;;;;;;3.27;1.75;;;;;;;7.77;81.38;98876.61;1686767;83;25530;-43
2024/02/05 09:43:33;;;;;;;6.00;1.10;;;;;;;7.75;80.36;98871.33;1641345;85;27371;-44
2024/02/05 09:46:05;;;;;;;2.30;1.02;;;;;;;7.76;80.66;98882.31;1676266;83;25781;-44
2024/02/05 09:48:34;;;;;;;4.20;1.27;;;;;;;7.75;80.53;98867.30;1689738;83;25428;-43
2024/02/05 09:51:02;;;;;;;3.87;1.50;;;;;;;7.74;79.63;98875.13;1691782;83;25607;-44
2024/02/05 09:53:29;;;;;;;2.67;1.20;;;;;;;7.69;79.76;98895.49;1692255;83;25642;-43
2024/02/05 09:55:56;;;;;;;3.00;1.30;;;;;;;7.65;79.06;98885.94;1687628;82;27395;-43
2024/02/05 09:58:23;;;;;;;5.10;1.70;;;;;;;7.63;80.08;98886.25;1675222;81;25618;-43
2024/02/05 10:00:51;;;;;;;11.70;7.42;;;;;;;7.63;80.14;98896.23;1696843;82;25552;-44
2024/02/05 10:03:18;;;;;;;22.10;16.27;;;;;;;7.62;80.55;98880.63;1713205;83;25634;-44
2024/02/05 10:05:47;;;;;;;4.22;2.75;;;;;;;7.62;79.50;98881.97;1716107;82;25433;-42
2024/02/05 10:08:17;;;;;;;5.25;1.70;;;;;;;7.61;79.91;98870.19;1687629;83;27292;-43
2024/02/05 10:10:46;;;;;;;2.95;1.60;;;;;;;7.64;80.08;98889.19;1688570;83;25500;-44
2024/02/05 10:13:15;;;;;;;2.98;1.62;;;;;;;7.66;80.71;98873.50;1673615;83;25458;-44
2024/02/05 10:15:42;;;;;;;3.80;1.50;;;;;;;7.67;79.60;98858.91;1686414;82;25609;-42
2024/02/05 10:18:10;;;;;;;2.87;1.52;;;;;;;7.63;79.61;98874.70;1695956;82;26251;-44
2024/02/05 10:20:38;;;;;;;3.15;1.40;;;;;;;7.56;78.77;98871.17;1692368;83;28401;-45
2024/02/05 10:23:05;;;;;;;3.67;1.50;;;;;;;7.51;79.26;98867.31;1666581;84;26005;-44
2024/02/05 10:25:33;;;;;;;4.10;1.27;;;;;;;7.45;78.71;98862.66;1649403;85;25438;-44
2024/02/05 10:28:03;;;;;;;3.27;1.50;;;;;;;7.43;78.80;98868.92;1647024;86;25678;-44
2024/02/05 10:30:31;;;;;;;3.25;1.52;;;;;;;7.42;78.72;98857.13;1644590;85;25490;-45
2024/02/05 10:33:01;;;;;;;3.08;1.30;;;;;;;7.45;79.04;98863.22;1626849;86;27679;-45
2024/02/05 10:35:31;;;;;;;4.12;1.52;;;;;;;7.48;79.33;98864.70;1682923;83;25430;-43
2024/02/05 10:38:11;;;;;;;2.15;1.30;;;;;;;7.51;78.11;98867.85;1704040;81;25497;-44
2024/02/05 10:40:38;;;;;;;4.53;1.60;;;;;;;7.47;78.17;98873.09;1711169;83;25622;-48
2024/02/05 10:43:08;;;;;;;2.45;1.27;;;;;;;7.41;77.87;98865.77;1692678;83;25408;-44
2024/02/05 10:45:38;;;;;;;3.62;1.27;;;;;;;7.37;78.08;98866.72;1688353;82;27342;-43
2024/02/05 10:48:04;;;;;;;3.67;1.67;;;;;;;7.41;78.47;98880.56;1688840;83;25826;-43
2024/02/05 10:50:32;;;;;;;2.25;1.27;;;;;;;7.52;78.63;98867.53;1681111;83;25822;-44
2024/02/05 10:52:59;;;;;;;12.60;7.33;;;;;;;7.67;78.20;98870.24;1692198;83;25949;-43
2024/02/05 10:55:29;;;;;;;12.60;5.00;;;;;;;7.87;78.29;98884.88;1679358;84;25454;-44
2024/02/05 10:58:00;;;;;;;3.35;2.05;;;;;;;8.14;78.72;98874.19;1645369;85;27377;-40
2024/02/05 11:00:27;;;;;;;4.90;1.30;;;;;;;8.32;77.88;98881.58;1652034;84;25506;-41
2024/02/05 11:03:09;;;;;;;3.60;1.30;;;;;;;8.43;77.17;98884.72;1640449;86;25666;-40
2024/02/05 11:05:43;;;;;;;1.57;1.20;;;;;;;8.47;77.09;98868.11;1697192;81;26348;-42
2024/02/05 11:08:16;;;;;;;3.55;1.30;;;;;;;8.46;76.38;98869.21;1689373;81;25820;-43
2024/02/05 11:10:46;;;;;;;2.42;1.27;;;;;;;8.37;74.79;98869.82;1701542;83;28036;-42
2024/02/05 11:13:21;;;;;;;3.80;1.52;;;;;;;8.29;75.16;98859.89;1673276;83;25669;-42
2024/02/05 11:15:52;;;;;;;3.35;1.40;;;;;;;8.22;75.21;98870.66;1705454;83;25485;-44
2024/02/05 11:18:30;;;;;;;3.33;1.55;;;;;;;8.18;74.83;98871.06;1696156;81;25597;-43
2024/02/05 11:21:02;;;;;;;3.40;1.27;;;;;;;8.13;75.12;98871.81;1662644;84;25970;-42
2024/02/05 11:23:34;;;;;;;2.20;1.40;;;;;;;8.10;75.16;98864.39;1673123;85;27383;-43
2024/02/05 11:26:06;;;;;;;2.15;1.40;;;;;;;8.14;75.24;98864.77;1669931;83;26009;-44
2024/02/05 11:28:34;;;;;;;3.42;1.40;;;;;;;8.32;75.92;98867.33;1670686;84;25625;-43
2024/02/05 11:31:07;;;;;;;3.30;1.60;;;;;;;8.52;75.11;98850.39;1630671;86;26690;-43
2024/02/05 11:33:40;;;;;;;2.60;1.42;;;;;;;8.62;74.45;98869.42;1633621;86;25835;-44
2024/02/05 11:36:14;;;;;;;3.33;1.20;;;;;;;8.63;74.12;98870.98;1609499;87;27691;-43
2024/02/05 11:38:45;;;;;;;2.55;0.98;;;;;;;8.64;72.84;98855.62;1655433;85;25494;-44
2024/02/05 11:41:24;;;;;;;3.92;1.20;;;;;;;8.62;71.52;98872.69;1667854;83;25648;-42
2024/02/05 11:43:55;;;;;;;3.87;1.40;;;;;;;8.50;71.37;98865.33;1659368;84;34756;-46
2024/02/05 11:46:23;;;;;;;2.80;1.40;;;;;;;8.50;71.37;98865.33;1667200;84;25509;-44
2024/02/05 11:48:49;;;;;;;3.20;1.70;;;;;;;8.45;71.46;98883.83;1660364;85;27295;-46